Time;durP1;ratioP1;P1;durP2;ratioP2;P2;SDS_P1;SDS_P2;PMS_P1;PMS_P2;Temp;Humidity;BMP_temperature;BMP_pressure;BME280_temperature;BME280_humidity;BME280_pressure;Samples;Min_cycle;Max_cycle;Signal;HPM_P1;HPM_P2
2022/03/30 00:00:25;;;;;;;18.07;11.33;;;11.20;59.70;;;11.24;48.78;94451.13;5070824;28;20568;-56
2022/03/30 00:02:53;;;;;;;25.07;12.30;;;11.10;59.70;;;11.18;48.27;94462.28;5070874;28;20527;-55
2022/03/30 00:05:20;;;;;;;33.33;11.10;;;11.10;59.60;;;11.16;48.50;94457.16;5077596;28;20462;-55
2022/03/30 00:07:52;;;;;;;25.40;11.83;;;11.00;60.50;;;11.15;48.95;94455.50;5072063;28;20501;-55
2022/03/30 00:10:19;;;;;;;33.90;11.93;;;11.10;60.40;;;11.14;48.27;94459.13;5070443;28;20954;-55
2022/03/30 00:12:47;;;;;;;28.27;11.83;;;11.00;59.20;;;11.12;48.76;94448.75;5073872;28;20468;-54
2022/03/30 00:15:15;;;;;;;27.10;11.63;;;11.00;60.00;;;11.09;48.17;94456.97;5069135;28;20958;-56
2022/03/30 00:17:43;;;;;;;21.40;12.20;;;11.00;59.50;;;11.06;48.41;94449.38;5075190;28;21071;-60
2022/03/30 00:20:11;;;;;;;36.07;12.70;;;11.00;60.00;;;11.02;48.24;94445.38;5078829;28;20462;-55
2022/03/30 00:22:40;;;;;;;21.77;12.20;;;10.90;59.40;;;11.00;48.52;94460.50;5065318;28;20531;-56
2022/03/30 00:25:09;;;;;;;22.27;12.00;;;10.90;59.90;;;11.01;48.63;94448.16;5075316;28;20527;-55
2022/03/30 00:27:36;;;;;;;34.70;12.27;;;10.90;60.20;;;10.96;48.12;94427.56;5079420;28;20878;-53
2022/03/30 00:30:05;;;;;;;16.80;10.70;;;10.90;60.20;;;10.93;47.98;94447.13;5068613;28;20454;-54
2022/03/30 00:32:34;;;;;;;35.83;12.73;;;10.80;59.30;;;10.88;48.66;94438.06;5070992;28;20528;-56
2022/03/30 00:35:01;;;;;;;25.87;12.53;;;10.80;60.00;;;10.87;48.68;94447.72;5075281;28;21231;-56
2022/03/30 00:37:28;;;;;;;23.33;11.43;;;10.80;60.50;;;10.88;49.24;94448.56;5072108;28;20469;-53
2022/03/30 00:39:56;;;;;;;22.40;11.10;;;10.80;60.90;;;10.88;48.93;94454.66;5079846;28;20469;-55
2022/03/30 00:42:24;;;;;;;19.00;11.30;;;10.80;60.00;;;10.83;48.45;94445.56;5076031;28;21525;-56
2022/03/30 00:44:52;;;;;;;28.63;13.60;;;10.80;60.50;;;10.82;48.63;94451.81;5075164;28;20446;-56
2022/03/30 00:47:21;;;;;;;16.60;12.17;;;10.70;60.00;;;10.78;49.34;94432.84;5080482;28;20476;-55
2022/03/30 00:49:50;;;;;;;28.60;13.50;;;10.70;61.10;;;10.76;48.74;94447.97;5076809;28;20454;-56
2022/03/30 00:52:17;;;;;;;19.20;11.77;;;10.70;60.20;;;10.73;48.76;94440.38;5071829;28;20914;-55
2022/03/30 00:54:47;;;;;;;24.03;11.40;;;10.60;60.60;;;10.71;48.72;94440.53;5082022;28;21021;-53
2022/03/30 00:57:15;;;;;;;20.87;10.80;;;10.60;60.40;;;10.69;49.77;94439.03;5068249;28;20536;-56
2022/03/30 00:59:43;;;;;;;20.77;12.07;;;10.60;61.60;;;10.66;49.84;94450.69;5077195;28;20459;-56
2022/03/30 01:02:10;;;;;;;19.10;12.33;;;10.60;61.80;;;10.60;49.48;94432.88;5079768;28;20530;-55
2022/03/30 01:04:37;;;;;;;26.17;12.83;;;10.50;61.80;;;10.57;49.03;94428.75;5070632;28;20512;-55
2022/03/30 01:07:06;;;;;;;26.30;12.17;;;10.50;61.30;;;10.58;49.39;94435.66;5075702;28;20508;-55
2022/03/30 01:09:34;;;;;;;20.20;12.37;;;10.50;61.40;;;10.56;49.46;94424.44;5082237;28;20834;-55
2022/03/30 01:12:01;;;;;;;34.03;11.40;;;10.50;62.50;;;10.57;49.33;94425.28;5072012;28;20470;-55
2022/03/30 01:14:28;;;;;;;21.23;11.27;;;10.50;61.60;;;10.57;49.41;94425.28;5077128;28;20585;-57
2022/03/30 01:16:56;;;;;;;28.03;12.87;;;10.50;61.80;;;10.55;49.29;94429.84;5082296;28;20478;-56
2022/03/30 01:19:24;;;;;;;23.40;12.20;;;10.50;61.60;;;10.52;49.51;94422.31;5064711;28;20454;-55
2022/03/30 01:21:53;;;;;;;24.93;10.80;;;10.50;61.50;;;10.47;49.35;94432.41;5076182;28;20578;-54
2022/03/30 01:24:20;;;;;;;24.17;12.57;;;10.40;61.40;;;10.44;49.42;94428.31;5083289;28;20550;-53
2022/03/30 01:26:47;;;;;;;21.23;11.50;;;10.40;61.70;;;10.38;49.41;94421.84;5068925;28;20471;-53
2022/03/30 01:34:44;;;;;;;29.23;11.70;;;10.20;61.40;;;10.25;49.89;94428.41;5072635;28;20566;-55
2022/03/30 01:37:14;;;;;;;26.30;11.03;;;10.20;62.10;;;10.21;50.04;94441.03;5080663;28;20526;-55
2022/03/30 01:39:41;;;;;;;19.67;11.63;;;10.10;62.80;;;10.18;50.54;94443.94;5072869;28;20455;-56
2022/03/30 01:42:09;;;;;;;28.40;10.93;;;10.10;63.50;;;10.15;51.44;94450.31;5075177;28;20585;-56
2022/03/30 01:44:37;;;;;;;18.70;11.13;;;10.10;64.30;;;10.11;50.78;94438.44;5080299;28;20988;-56
2022/03/30 01:47:05;;;;;;;17.70;9.50;;;10.10;64.50;;;10.08;50.57;94443.97;5074940;28;20899;-54
2022/03/30 01:49:32;;;;;;;16.93;9.87;;;10.00;63.30;;;10.08;50.10;94451.06;5075281;28;20970;-54
2022/03/30 01:52:00;;;;;;;18.73;10.17;;;10.00;62.70;;;10.04;50.26;94434.75;5081280;28;20473;-56
2022/03/30 01:54:29;;;;;;;24.17;9.60;;;10.00;63.80;;;10.00;50.16;94449.16;5067230;28;20487;-58
2022/03/30 01:56:57;;;;;;;23.30;10.43;;;10.00;63.10;;;9.95;50.33;94448.78;5075000;28;20537;-54
2022/03/30 01:59:24;;;;;;;21.27;10.47;;;9.90;64.90;;;9.89;51.14;94439.66;5074464;28;20450;-57
2022/03/30 02:01:52;;;;;;;18.20;10.87;;;9.90;65.20;;;9.84;50.46;94445.38;5069850;28;20590;-53
2022/03/30 02:04:19;;;;;;;19.73;10.83;;;9.80;64.50;;;9.79;51.50;94436.25;5076752;28;20771;-54
2022/03/30 02:06:47;;;;;;;17.53;10.77;;;9.70;65.70;;;9.71;50.60;94449.28;5075430;28;20478;-53
2022/03/30 02:09:14;;;;;;;18.47;11.23;;;9.70;64.80;;;9.64;50.64;94443.81;5064462;28;20459;-56
2022/03/30 02:11:43;;;;;;;24.90;11.23;;;9.60;65.30;;;9.59;52.01;94439.00;5075766;28;20507;-58
2022/03/30 02:14:10;;;;;;;15.10;9.80;;;9.50;66.60;;;9.54;50.55;94456.94;5081065;28;21109;-56
2022/03/30 02:16:38;;;;;;;19.23;11.47;;;9.50;65.40;;;9.54;50.60;94464.81;5069475;28;21309;-56
2022/03/30 02:19:05;;;;;;;26.93;9.70;;;9.50;65.50;;;9.56;50.75;94468.16;5077044;28;20454;-54
2022/03/30 02:21:34;;;;;;;19.83;10.10;;;9.50;65.30;;;9.60;50.54;94461.63;5081291;28;20462;-54
2022/03/30 02:24:01;;;;;;;22.17;10.53;;;9.50;65.60;;;9.61;51.15;94465.91;5072043;28;20860;-53
2022/03/30 02:26:30;;;;;;;23.83;10.83;;;9.60;66.10;;;9.60;50.71;94466.88;5078997;28;20750;-53
2022/03/30 02:28:59;;;;;;;26.77;10.93;;;9.60;66.10;;;9.57;51.37;94471.59;5071868;28;20452;-56
2022/03/30 02:31:26;;;;;;;25.00;11.97;;;9.50;66.70;;;9.54;51.05;94472.69;5070371;28;20449;-56
2022/03/30 02:33:53;;;;;;;21.87;10.50;;;9.50;66.20;;;9.54;51.18;94471.88;5074380;28;20558;-55
2022/03/30 02:36:20;;;;;;;25.87;10.57;;;9.50;66.10;;;9.55;51.07;94474.38;5078580;28;20459;-56
2022/03/30 02:38:48;;;;;;;19.33;9.77;;;9.50;65.80;;;9.58;50.77;94471.44;5072907;28;20461;-56
2022/03/30 02:41:15;;;;;;;20.27;9.83;;;9.50;66.10;;;9.60;50.63;94474.75;5078858;28;21008;-56
2022/03/30 02:43:42;;;;;;;25.90;9.90;;;9.50;66.00;;;9.61;50.84;94465.91;5073589;28;21014;-54
2022/03/30 02:46:11;;;;;;;14.93;10.27;;;9.60;65.80;;;9.61;50.56;94460.66;5072294;28;20446;-55
2022/03/30 02:48:40;;;;;;;28.50;11.60;;;9.60;66.10;;;9.60;50.87;94469.50;5080582;28;20478;-56
2022/03/30 02:51:08;;;;;;;27.10;10.63;;;9.50;65.60;;;9.56;50.92;94470.78;5073614;28;20544;-56
2022/03/30 02:53:36;;;;;;;27.73;13.27;;;9.50;65.70;;;9.52;50.84;94466.78;5073731;28;20473;-56
2022/03/30 02:56:03;;;;;;;16.87;10.30;;;9.40;65.60;;;9.47;50.81;94451.47;5080398;28;20562;-56
2022/03/30 02:58:31;;;;;;;26.00;11.90;;;9.50;65.90;;;9.50;50.70;94448.53;5072024;28;20503;-55
2022/03/30 03:00:58;;;;;;;25.70;11.33;;;9.50;66.10;;;9.49;51.06;94449.50;5076148;28;20450;-58
2022/03/30 03:03:27;;;;;;;23.90;12.37;;;9.50;66.40;;;9.50;51.07;94458.22;5080665;28;21986;-56
2022/03/30 03:05:54;;;;;;;23.63;11.67;;;9.50;66.90;;;9.49;51.23;94453.94;5067899;28;20462;-54
2022/03/30 03:08:21;;;;;;;20.77;10.13;;;9.50;66.50;;;9.49;51.28;94454.75;5073235;28;20529;-54
2022/03/30 03:10:50;;;;;;;29.87;12.40;;;9.40;66.50;;;9.50;51.51;94456.41;5080567;28;20454;-55
2022/03/30 03:13:18;;;;;;;25.67;12.13;;;9.50;67.00;;;9.52;51.31;94461.53;5065640;28;20495;-55
2022/03/30 03:15:46;;;;;;;23.70;13.90;;;9.50;66.90;;;9.51;51.42;94452.84;5074540;28;20542;-57
2022/03/30 03:18:14;;;;;;;34.13;13.00;;;9.50;67.10;;;9.53;51.66;94455.31;5073623;28;20645;-55
2022/03/30 03:20:44;;;;;;;22.80;11.83;;;9.50;67.30;;;9.51;51.28;94444.97;5068082;28;20483;-56
2022/03/30 03:23:11;;;;;;;47.27;12.33;;;9.40;67.20;;;9.50;51.47;94451.16;5074532;28;20462;-56
2022/03/30 03:25:40;;;;;;;24.90;11.40;;;9.50;67.90;;;9.52;51.75;94453.66;5077247;28;21028;-56
2022/03/30 03:28:08;;;;;;;26.53;12.73;;;9.50;67.30;;;9.52;51.61;94453.66;5066033;28;21006;-56
2022/03/30 03:30:36;;;;;;;28.43;11.33;;;9.50;67.70;;;9.53;51.77;94444.81;5073254;28;20466;-56
2022/03/30 03:33:03;;;;;;;33.33;14.13;;;9.50;67.70;;;9.52;51.22;94449.22;5073730;28;20578;-56
2022/03/30 03:35:30;;;;;;;24.53;13.30;;;9.50;67.50;;;9.51;51.51;94444.97;5070674;28;20490;-54
2022/03/30 03:38:00;;;;;;;22.33;11.63;;;9.40;67.40;;;9.48;51.71;94440.00;5072461;28;20486;-55
2022/03/30 03:40:27;;;;;;;25.83;12.07;;;9.50;68.10;;;9.43;51.71;94442.19;5071129;28;20829;-56
2022/03/30 03:42:54;;;;;;;34.10;12.40;;;9.40;67.70;;;9.40;51.71;94439.03;5063915;28;20558;-56
2022/03/30 03:45:22;;;;;;;28.97;12.50;;;9.30;67.80;;;9.38;52.05;94451.50;5070451;28;20458;-54
2022/03/30 03:47:49;;;;;;;28.37;14.00;;;9.30;68.50;;;9.39;51.89;94445.25;5066372;28;21164;-54
2022/03/30 03:50:17;;;;;;;29.47;13.40;;;9.30;68.30;;;9.39;51.91;94453.97;5067006;28;20454;-57
2022/03/30 03:52:44;;;;;;;23.13;12.60;;;9.30;68.60;;;9.37;52.21;94441.97;5073878;28;20485;-55
2022/03/30 03:55:13;;;;;;;26.93;13.17;;;9.30;69.00;;;9.41;51.88;94443.34;5064226;28;20482;-54
2022/03/30 03:57:40;;;;;;;32.27;13.40;;;9.30;68.80;;;9.39;52.18;94440.84;5070752;28;20486;-57
2022/03/30 04:00:09;;;;;;;35.60;15.90;;;9.40;68.90;;;9.35;52.76;94443.91;5074315;28;20753;-56
2022/03/30 04:02:36;;;;;;;47.83;14.47;;;9.30;70.20;;;9.36;52.31;94448.16;5064948;28;20470;-56
2022/03/30 04:05:04;;;;;;;30.10;15.47;;;9.30;69.60;;;9.38;52.59;94448.88;5073779;28;20986;-58
2022/03/30 04:07:32;;;;;;;45.07;15.40;;;9.30;69.70;;;9.37;52.49;94442.78;5069787;28;20513;-54
2022/03/30 04:10:01;;;;;;;39.40;14.67;;;9.30;69.50;;;9.38;52.37;94451.50;5064681;28;20505;-56
2022/03/30 04:12:30;;;;;;;26.43;13.63;;;9.30;69.60;;;9.39;52.74;94445.25;5066855;28;21061;-56
2022/03/30 04:14:57;;;;;;;26.30;13.27;;;9.30;69.60;;;9.39;52.76;94447.88;5084273;28;20477;-57
2022/03/30 04:17:25;;;;;;;30.47;15.10;;;9.30;69.70;;;9.42;52.29;94450.22;5075305;28;20474;-56
2022/03/30 04:19:52;;;;;;;27.03;13.10;;;9.40;69.70;;;9.43;52.59;94451.88;5074597;28;20569;-56
2022/03/30 04:22:19;;;;;;;25.17;12.70;;;9.40;69.70;;;9.46;52.51;94451.59;5082293;28;20485;-56
2022/03/30 04:24:47;;;;;;;26.37;13.40;;;9.40;69.70;;;9.47;52.72;94458.50;5066546;28;20542;-58
2022/03/30 04:27:14;;;;;;;36.13;13.80;;;9.40;69.90;;;9.49;52.63;94456.56;5073771;28;20565;-54
2022/03/30 04:29:43;;;;;;;26.03;13.33;;;9.40;69.80;;;9.48;52.16;94455.75;5065562;28;20450;-56
2022/03/30 04:32:10;;;;;;;40.70;13.07;;;9.50;69.80;;;9.49;52.07;94446.06;5064735;28;21033;-56
2022/03/30 04:34:38;;;;;;;24.43;14.00;;;9.40;69.70;;;9.51;52.30;94444.09;5072870;28;20489;-54
2022/03/30 04:37:05;;;;;;;25.20;14.40;;;9.50;70.10;;;9.52;52.60;94451.03;5070924;28;21240;-55
2022/03/30 04:39:33;;;;;;;26.07;14.57;;;9.50;69.90;;;9.54;52.42;94446.44;5071331;28;20462;-54
2022/03/30 04:42:01;;;;;;;21.10;12.90;;;9.50;69.90;;;9.57;52.47;94448.78;5072447;28;21086;-56
2022/03/30 04:44:28;;;;;;;27.30;13.97;;;9.50;69.80;;;9.60;52.23;94442.44;5065569;28;20526;-55
2022/03/30 04:46:56;;;;;;;33.40;15.10;;;9.50;70.20;;;9.62;52.71;94446.56;5071717;28;20481;-57
2022/03/30 04:49:24;;;;;;;30.77;13.67;;;9.60;70.10;;;9.65;52.18;94441.03;5081435;28;20446;-55
2022/03/30 04:51:51;;;;;;;34.83;13.10;;;9.60;70.20;;;9.67;52.31;94449.59;5065706;28;20590;-54
2022/03/30 04:54:18;;;;;;;38.83;14.40;;;9.60;69.90;;;9.71;52.29;94454.56;5070744;28;20450;-54
2022/03/30 04:56:47;;;;;;;28.70;14.17;;;9.60;70.50;;;9.74;52.19;94459.50;5076579;28;21020;-56
2022/03/30 04:59:15;;;;;;;55.77;18.80;;;9.70;70.10;;;9.77;52.22;94452.16;5068040;28;20482;-55
2022/03/30 05:01:42;;;;;;;32.80;15.60;;;9.70;70.10;;;9.80;52.04;94462.38;5073925;28;20531;-54
2022/03/30 05:04:11;;;;;;;23.57;13.20;;;9.80;70.10;;;9.82;52.17;94451.72;5076583;28;20509;-58
2022/03/30 05:06:38;;;;;;;33.93;13.03;;;9.80;70.10;;;9.89;52.32;94465.94;5074691;28;20513;-55
2022/03/30 05:09:06;;;;;;;39.57;13.23;;;9.80;70.20;;;9.95;52.37;94462.72;5066990;28;20454;-55
2022/03/30 05:11:33;;;;;;;33.70;14.67;;;9.90;70.20;;;10.03;52.17;94467.25;5076128;28;20480;-55
2022/03/30 05:14:00;;;;;;;36.57;15.30;;;10.00;69.30;;;10.12;52.18;94473.44;5070668;28;20450;-54
2022/03/30 05:16:28;;;;;;;26.63;12.90;;;10.00;69.30;;;10.20;52.22;94473.53;5069238;28;20492;-55
2022/03/30 05:18:55;;;;;;;34.53;14.17;;;10.10;69.30;;;10.26;52.04;94470.31;5078362;28;20781;-55
2022/03/30 05:21:24;;;;;;;30.20;13.37;;;10.20;69.20;;;10.36;51.91;94475.53;5071255;28;20490;-58
2022/03/30 05:23:51;;;;;;;26.77;13.10;;;10.30;69.00;;;10.48;51.79;94469.09;5070943;28;20562;-55
2022/03/30 05:26:18;;;;;;;34.33;13.07;;;10.40;68.50;;;10.57;51.71;94472.63;5080526;28;20466;-55
2022/03/30 05:28:45;;;;;;;21.50;14.10;;;10.50;68.30;;;10.66;51.35;94463.84;5065190;28;20465;-57
2022/03/30 05:31:13;;;;;;;25.17;13.40;;;10.60;68.40;;;10.72;51.32;94460.59;5070975;28;20457;-55
2022/03/30 05:33:40;;;;;;;21.10;11.27;;;10.60;68.50;;;10.79;52.00;94460.00;5075546;28;21021;-55
2022/03/30 05:36:08;;;;;;;29.23;12.03;;;10.70;70.00;;;10.85;52.01;94464.66;5070878;28;20488;-53
2022/03/30 05:38:37;;;;;;;34.20;12.50;;;10.70;69.90;;;10.96;52.18;94455.72;5073235;28;20470;-56
2022/03/30 05:41:04;;;;;;;20.77;11.00;;;10.80;69.70;;;11.05;51.65;94460.06;5075060;28;20532;-55
2022/03/30 05:43:31;;;;;;;28.57;10.60;;;10.90;69.10;;;11.09;51.83;94458.75;5070945;28;20922;-56
2022/03/30 05:45:59;;;;;;;36.27;10.70;;;11.00;69.00;;;11.12;51.05;94461.91;5070296;28;20450;-57
2022/03/30 05:48:26;;;;;;;27.20;10.87;;;11.00;68.10;;;11.18;51.66;94465.72;5076059;28;20481;-56
2022/03/30 05:50:55;;;;;;;27.97;10.83;;;11.10;69.00;;;11.27;51.38;94456.91;5071671;28;20467;-56
2022/03/30 05:53:23;;;;;;;28.93;11.50;;;11.10;68.80;;;11.41;51.43;94467.88;5063427;28;20455;-57
2022/03/30 05:55:51;;;;;;;21.67;11.97;;;11.20;68.80;;;11.53;51.25;94464.00;5071920;28;20909;-54
2022/03/30 05:58:19;;;;;;;34.80;12.83;;;11.30;68.50;;;11.66;50.63;94456.50;5069298;28;20478;-53
2022/03/30 06:00:46;;;;;;;35.30;13.97;;;11.50;67.60;;;11.83;50.33;94460.06;5073018;28;20994;-56
2022/03/30 06:03:13;;;;;;;38.80;13.73;;;11.60;67.40;;;12.00;49.90;94454.88;5061445;28;20503;-56
2022/03/30 06:05:41;;;;;;;40.07;14.27;;;11.80;66.90;;;12.17;49.72;94464.47;5066561;28;20462;-55
2022/03/30 06:08:09;;;;;;;29.20;13.97;;;11.90;66.50;;;12.38;49.57;94463.25;5078851;28;20488;-55
2022/03/30 06:10:36;;;;;;;33.57;14.37;;;12.10;65.90;;;12.59;49.10;94469.88;5068257;28;20962;-57
2022/03/30 06:13:05;;;;;;;42.97;14.77;;;12.30;65.60;;;12.78;48.83;94468.75;5073677;28;20561;-57
2022/03/30 06:15:33;;;;;;;46.63;17.23;;;12.50;65.00;;;12.86;48.76;94472.22;5077302;28;20490;-55
2022/03/30 06:18:00;;;;;;;37.83;17.63;;;12.60;64.60;;;12.96;48.70;94473.88;5063076;28;20474;-54
2022/03/30 06:20:28;;;;;;;50.20;19.60;;;12.70;65.60;;;13.14;48.84;94476.38;5069523;28;20455;-56
2022/03/30 06:22:55;;;;;;;33.83;17.90;;;12.80;64.60;;;13.34;48.64;94468.94;5074837;28;20471;-57
2022/03/30 06:25:24;;;;;;;39.90;16.00;;;13.00;65.20;;;13.53;48.79;94468.59;5067967;28;20470;-56
2022/03/30 06:27:51;;;;;;;39.47;16.13;;;13.30;64.70;;;13.74;48.02;94472.50;5069845;28;20461;-56
2022/03/30 06:30:20;;;;;;;36.53;16.73;;;13.40;63.70;;;13.90;48.28;94469.00;5067588;28;20448;-56
2022/03/30 06:32:49;;;;;;;34.40;14.27;;;13.60;63.60;;;14.06;47.31;94478.69;5068305;28;20466;-55
2022/03/30 06:35:18;;;;;;;23.83;13.17;;;13.80;62.90;;;14.24;46.98;94476.66;5075036;28;20943;-56
2022/03/30 06:37:46;;;;;;;38.20;15.90;;;14.00;61.80;;;14.44;46.50;94470.94;5071160;28;20567;-54
2022/03/30 06:40:14;;;;;;;30.03;15.23;;;14.10;61.10;;;14.61;46.31;94477.81;5068966;28;20485;-55
2022/03/30 06:42:41;;;;;;;26.77;13.77;;;14.30;60.60;;;14.81;46.29;94470.25;5073400;28;20470;-55
2022/03/30 06:45:10;;;;;;;32.93;13.97;;;14.50;60.00;;;15.04;45.93;94478.19;5060894;28;20869;-54
2022/03/30 06:47:39;;;;;;;38.97;13.17;;;14.70;59.80;;;15.23;45.69;94473.41;5071859;28;21013;-56
2022/03/30 06:50:08;;;;;;;28.43;13.87;;;14.90;59.30;;;15.38;45.33;94468.13;5073640;28;20453;-55
2022/03/30 06:52:36;;;;;;;27.97;13.20;;;15.10;58.70;;;15.52;44.33;94485.09;5072540;28;21062;-56
2022/03/30 06:55:05;;;;;;;33.13;12.90;;;15.20;57.50;;;15.66;44.60;94480.81;5071359;28;21030;-56
2022/03/30 06:57:33;;;;;;;23.87;12.67;;;15.40;57.70;;;15.83;43.88;94482.31;5075805;28;20821;-56
2022/03/30 07:00:00;;;;;;;23.13;12.80;;;15.50;56.70;;;15.98;44.21;94487.63;5060554;28;20546;-55
2022/03/30 07:02:28;;;;;;;29.30;12.63;;;15.70;56.50;;;16.19;43.84;94491.38;5062977;28;20470;-56
2022/03/30 07:04:56;;;;;;;22.13;12.67;;;15.90;56.50;;;16.45;43.71;94490.91;5067227;28;20531;-54
2022/03/30 07:10:18;;;;;;;28.77;12.13;;;16.40;55.60;;;17.11;43.20;94480.22;5065170;28;20502;-55
2022/03/30 07:12:47;;;;;;;25.00;12.20;;;16.70;55.70;;;17.44;42.70;94474.38;5065640;28;20527;-56
2022/03/30 07:15:15;;;;;;;32.13;12.13;;;17.10;55.00;;;17.74;42.20;94484.84;5066291;28;20498;-55
2022/03/30 07:17:47;;;;;;;30.80;13.50;;;17.40;54.20;;;18.00;41.52;94478.06;5069038;28;20837;-57
2022/03/30 07:20:16;;;;;;;33.43;13.23;;;17.60;53.10;;;18.18;40.52;94473.06;5062069;28;20471;-56
2022/03/30 07:22:44;;;;;;;32.57;12.37;;;17.80;51.40;;;18.32;40.44;94467.81;5070413;28;20474;-54
2022/03/30 07:25:13;;;;;;;36.17;13.50;;;18.00;52.60;;;18.45;40.43;94460.72;5064900;28;20454;-56
2022/03/30 07:27:41;;;;;;;33.10;13.77;;;18.10;51.60;;;18.72;39.69;94465.31;5068939;28;20475;-56
2022/03/30 07:30:10;;;;;;;40.97;13.10;;;18.30;50.70;;;18.95;40.18;94465.81;5068363;28;20542;-54
2022/03/30 07:32:39;;;;;;;27.43;13.10;;;18.60;50.80;;;19.25;39.51;94460.13;5065518;28;20495;-55
2022/03/30 07:35:08;;;;;;;22.47;12.30;;;18.90;50.80;;;19.59;39.22;94466.28;5064564;28;20496;-55
2022/03/30 07:37:37;;;;;;;32.43;12.73;;;19.10;49.90;;;19.96;36.75;94465.88;5068373;28;20889;-58
2022/03/30 07:40:05;;;;;;;30.10;15.00;;;19.50;48.00;;;20.24;37.66;94468.28;5068943;28;20469;-56
2022/03/30 07:42:33;;;;;;;27.13;14.00;;;19.80;48.50;;;20.49;38.10;94472.94;5062179;28;20840;-57
2022/03/30 07:45:00;;;;;;;29.13;14.73;;;20.00;48.60;;;20.79;37.68;94467.91;5066857;28;20443;-57
2022/03/30 07:47:29;;;;;;;36.40;14.80;;;20.40;48.10;;;21.07;36.11;94462.19;5077786;28;21461;-56
2022/03/30 07:49:57;;;;;;;33.23;15.37;;;20.70;46.20;;;21.31;35.98;94470.47;5068134;28;20543;-57
2022/03/30 07:52:24;;;;;;;37.70;15.77;;;20.90;46.20;;;21.61;36.74;94467.19;5066407;28;20478;-56
2022/03/30 07:54:53;;;;;;;23.30;13.50;;;21.20;46.90;;;22.02;36.52;94468.50;5072981;28;20451;-57
2022/03/30 07:57:26;;;;;;;25.23;13.00;;;21.70;46.40;;;22.50;35.64;94462.44;5066579;28;20505;-56
2022/03/30 07:59:54;;;;;;;21.17;12.10;;;22.20;45.40;;;23.01;35.16;94459.56;5066654;28;20451;-57
2022/03/30 08:02:21;;;;;;;30.00;14.10;;;22.70;45.20;;;23.42;34.95;94452.56;5072496;28;20478;-57
2022/03/30 08:04:49;;;;;;;35.30;14.07;;;23.20;44.10;;;23.76;33.70;94450.19;5067820;28;20458;-56
2022/03/30 08:07:16;;;;;;;28.40;13.10;;;23.60;43.10;;;24.07;33.57;94456.28;5072291;28;20889;-57
2022/03/30 08:09:43;;;;;;;28.83;12.67;;;23.90;43.40;;;24.46;33.58;94453.91;5075313;28;20458;-57
2022/03/30 08:12:14;;;;;;;25.80;14.97;;;24.30;42.90;;;24.85;32.97;94440.75;5064804;28;20473;-56
2022/03/30 08:14:42;;;;;;;29.53;14.13;;;24.60;42.40;;;25.06;32.24;94453.50;5071670;28;20446;-55
2022/03/30 08:17:09;;;;;;;33.17;14.23;;;24.90;41.90;;;25.17;31.71;94451.03;5067561;28;20486;-55
2022/03/30 08:19:37;;;;;;;23.27;13.47;;;25.00;41.00;;;25.17;32.08;94445.63;5067257;28;20451;-57
2022/03/30 08:24:46;;;;;;;27.93;13.83;;;25.00;40.30;;;25.08;32.13;94439.00;5051586;28;20819;-56
2022/03/30 08:27:16;;;;;;;24.70;13.53;;;25.00;40.90;;;25.01;31.29;94436.47;5049001;28;20479;-56
2022/03/30 08:29:44;;;;;;;33.33;13.13;;;25.00;39.80;;;24.86;30.94;94432.44;5063334;28;20537;-58
2022/03/30 08:32:12;;;;;;;21.93;11.20;;;24.90;39.60;;;24.82;31.34;94419.72;5062870;28;20482;-57
2022/03/30 08:34:39;;;;;;;21.10;11.03;;;24.80;39.80;;;24.62;31.31;94415.56;5060111;28;20584;-55
2022/03/30 08:37:07;;;;;;;44.03;14.73;;;24.70;39.10;;;24.47;30.89;94434.03;5066452;28;20892;-59
2022/03/30 08:39:35;;;;;;;17.70;10.33;;;24.50;39.10;;;24.46;30.04;94416.28;5062551;28;20478;-56
2022/03/30 08:42:03;;;;;;;27.50;10.57;;;24.40;38.20;;;24.52;31.27;94416.16;5064395;28;20994;-58
2022/03/30 08:44:32;;;;;;;26.90;10.77;;;24.40;38.90;;;24.63;30.12;94411.00;5062355;28;21225;-56
2022/03/30 08:47:00;;;;;;;25.57;12.23;;;24.50;39.10;;;24.63;30.64;94406.44;5061554;28;20645;-56
2022/03/30 08:49:33;;;;;;;22.63;11.60;;;24.50;38.60;;;24.63;30.76;94401.06;5060561;28;20455;-58
2022/03/30 08:52:00;;;;;;;29.77;11.50;;;24.40;38.60;;;24.68;30.47;94398.47;5069694;28;20549;-55
2022/03/30 08:54:29;;;;;;;22.70;7.37;;;24.40;38.10;;;24.61;29.44;94387.03;5065471;28;20447;-58
2022/03/30 08:56:56;;;;;;;20.30;5.83;;;24.30;37.60;;;24.39;29.07;94394.09;5059578;28;20487;-58
2022/03/30 08:59:24;;;;;;;27.77;6.90;;;24.10;36.10;;;23.89;28.52;94395.44;5067959;28;21016;-56
2022/03/30 09:01:54;;;;;;;16.33;6.93;;;23.80;35.30;;;23.31;29.17;94388.97;5064284;28;20502;-56
2022/03/30 09:04:22;;;;;;;16.23;6.30;;;23.20;35.30;;;23.05;29.50;94390.97;5071086;28;20980;-58
2022/03/30 09:06:50;;;;;;;24.80;6.60;;;22.80;36.40;;;22.89;28.93;94393.25;5074288;28;20993;-56
2022/03/30 09:09:28;;;;;;;30.93;7.33;;;22.70;36.60;;;22.59;28.43;94395.13;5069074;28;20825;-55
2022/03/30 09:11:56;;;;;;;23.10;6.60;;;22.40;35.80;;;22.31;29.40;94372.41;5062604;28;20479;-55
2022/03/30 09:14:26;;;;;;;18.23;6.00;;;22.10;36.50;;;22.20;29.98;94371.25;5072804;28;20454;-56
2022/03/30 09:16:56;;;;;;;15.57;6.87;;;22.00;37.10;;;22.18;29.71;94376.00;5068345;28;21157;-57
2022/03/30 09:19:24;;;;;;;16.90;6.20;;;21.90;37.30;;;22.08;29.52;94355.13;5070520;28;20979;-52
2022/03/30 09:21:53;;;;;;;18.23;6.50;;;21.80;36.90;;;22.01;29.62;94357.03;5071026;28;20950;-55
2022/03/30 09:24:21;;;;;;;19.43;7.63;;;21.70;37.00;;;22.12;29.72;94350.13;5069768;28;20459;-57
2022/03/30 09:26:50;;;;;;;14.70;5.50;;;21.70;36.90;;;22.22;28.75;94361.13;5065905;28;20510;-55
2022/03/30 09:29:19;;;;;;;58.27;7.10;;;21.80;36.50;;;22.05;28.83;94354.75;5065694;28;20465;-53
2022/03/30 09:31:46;;;;;;;20.97;5.50;;;21.70;36.00;;;21.91;29.14;94351.41;5061227;28;20475;-55
2022/03/30 09:34:15;;;;;;;41.23;7.37;;;21.60;36.30;;;21.74;29.09;94354.66;5070907;28;20481;-56
2022/03/30 09:36:43;;;;;;;12.17;6.03;;;21.50;36.10;;;21.55;29.15;94353.00;5062784;28;20498;-54
2022/03/30 09:39:28;;;;;;;20.03;5.93;;;21.30;36.10;;;21.36;29.13;94347.56;5070381;28;20541;-55
2022/03/30 09:41:56;;;;;;;17.13;5.53;;;21.10;36.40;;;21.19;29.04;94338.47;5070186;28;21085;-55
2022/03/30 09:44:23;;;;;;;22.80;6.40;;;21.00;36.20;;;21.06;29.31;94331.38;5065698;28;20469;-55
2022/03/30 09:47:03;;;;;;;15.67;5.80;;;20.80;36.40;;;21.01;29.19;94340.06;5063121;28;20501;-56
2022/03/30 09:49:37;;;;;;;20.77;5.47;;;20.70;36.60;;;21.06;29.76;94320.69;5071900;28;21053;-54
2022/03/30 09:52:13;;;;;;;23.93;5.47;;;20.70;37.00;;;21.13;29.26;94318.75;5066062;28;20478;-54
2022/03/30 09:54:42;;;;;;;12.93;5.73;;;20.80;36.80;;;21.10;29.56;94317.34;5068306;28;20456;-55
2022/03/30 09:57:14;;;;;;;27.50;6.27;;;20.80;36.80;;;21.12;29.46;94317.94;5062398;28;20498;-59
2022/03/30 10:00:08;;;;;;;23.63;6.97;;;20.80;36.70;;;21.10;29.15;94305.81;5060140;28;20452;-56
2022/03/30 10:02:37;;;;;;;28.57;6.10;;;20.80;36.20;;;21.00;29.05;94305.53;5064762;28;20984;-56
2022/03/30 10:05:08;;;;;;;18.60;5.50;;;20.70;36.20;;;20.91;29.35;94299.63;5061180;28;20467;-56
2022/03/30 10:07:35;;;;;;;13.40;4.97;;;20.60;36.40;;;20.90;29.48;94284.63;5065813;28;20482;-57
2022/03/30 10:10:03;;;;;;;24.60;5.60;;;20.60;36.70;;;20.87;29.06;94291.22;5066413;28;20457;-56
2022/03/30 10:12:31;;;;;;;19.23;5.07;;;20.60;36.30;;;20.83;29.42;94291.88;5066502;28;21098;-56
2022/03/30 10:14:58;;;;;;;17.50;5.70;;;20.50;36.60;;;20.80;29.47;94284.28;5068029;28;20502;-59
2022/03/30 10:17:28;;;;;;;14.70;5.80;;;20.50;36.60;;;20.72;29.26;94283.50;5063358;28;20574;-58
2022/03/30 10:19:58;;;;;;;15.37;5.03;;;20.40;36.60;;;20.73;29.33;94271.00;5062714;28;21015;-59
2022/03/30 10:22:55;;;;;;;26.77;6.33;;;20.40;36.60;;;20.71;28.97;94281.06;5064459;28;20478;-55
2022/03/30 10:25:50;;;;;;;22.23;7.10;;;20.40;36.30;;;20.70;29.51;94274.91;5065342;28;20447;-55